createdAt,value
2023-04-04T00:00:12.629Z,6.24
2023-04-04T00:02:45.163Z,6.52
2023-04-04T00:05:17.822Z,6.14
2023-04-04T00:07:53.507Z,6.21
2023-04-04T00:10:25.803Z,6.11
2023-04-04T00:12:59.248Z,6.49
2023-04-04T00:15:31.836Z,6.51
2023-04-04T00:18:04.243Z,6.61
2023-04-04T00:20:36.706Z,6.32
2023-04-04T00:23:11.775Z,6.12
2023-04-04T00:25:44.357Z,5.92
2023-04-04T00:28:16.547Z,6.31
2023-04-04T00:30:48.879Z,5.91
2023-04-04T00:33:21.814Z,6.11
2023-04-04T00:35:54.912Z,6.16
2023-04-04T00:38:29.847Z,5.97
2023-04-04T00:41:02.424Z,6.12
2023-04-04T00:43:35.002Z,5.95
2023-04-04T00:46:07.437Z,5.81
2023-04-04T00:48:41.012Z,6.05
2023-04-04T00:51:13.202Z,5.59
2023-04-04T00:53:51.014Z,5.91
2023-04-04T00:56:25.379Z,5.96
2023-04-04T00:58:59.113Z,5.80
2023-04-04T01:01:31.785Z,5.69
2023-04-04T01:04:04.206Z,5.44
2023-04-04T01:06:37.130Z,5.74
2023-04-04T01:09:12.285Z,5.93
2023-04-04T01:11:44.737Z,5.96
2023-04-04T01:14:17.039Z,6.01
2023-04-04T01:16:50.041Z,5.84
2023-04-04T01:19:34.317Z,5.91
2023-04-04T01:22:08.410Z,5.90
2023-04-04T01:24:46.730Z,6.03
2023-04-04T01:27:21.599Z,5.86
2023-04-04T01:29:54.045Z,5.87
2023-04-04T01:32:36.935Z,5.86
2023-04-04T01:35:25.942Z,5.65
2023-04-04T01:38:12.091Z,5.83
2023-04-04T01:40:48.753Z,6.16
2023-04-04T01:43:23.675Z,5.73
2023-04-04T01:45:56.137Z,6.21
2023-04-04T01:48:28.467Z,5.87
2023-04-04T01:51:01.436Z,5.77
2023-04-04T01:53:33.840Z,5.82
2023-04-04T01:56:06.099Z,6.11
2023-04-04T01:58:41.384Z,6.36
2023-04-04T02:01:14.432Z,5.92
2023-04-04T02:03:47.541Z,6.13
2023-04-04T02:06:19.965Z,6.11
2023-04-04T02:08:52.161Z,6.09
2023-04-04T02:11:25.408Z,6.36
2023-04-04T02:14:00.177Z,5.92
2023-04-04T02:16:32.363Z,6.31
2023-04-04T02:19:04.598Z,6.37
2023-04-04T02:21:36.786Z,6.04
2023-04-04T02:24:09.774Z,6.15
2023-04-04T02:26:42.433Z,6.22
2023-04-04T02:29:17.205Z,6.20
2023-04-04T02:31:49.398Z,6.38
2023-04-04T02:34:21.578Z,6.23
2023-04-04T02:36:53.963Z,6.51
2023-04-04T02:39:26.271Z,6.23
2023-04-04T02:41:58.619Z,6.32
2023-04-04T02:44:33.433Z,6.15
2023-04-04T02:47:05.590Z,5.84
2023-04-04T02:49:37.867Z,6.11
2023-04-04T02:52:10.785Z,6.57
2023-04-04T02:54:43.577Z,6.21
2023-04-04T02:57:15.718Z,6.22
2023-04-04T02:59:50.448Z,6.16
2023-04-04T03:02:22.935Z,6.12
2023-04-04T03:04:55.367Z,6.04
2023-04-04T03:07:27.827Z,6.55
2023-04-04T03:10:00.025Z,6.12
2023-04-04T03:12:32.228Z,6.31
2023-04-04T03:15:08.050Z,6.39
2023-04-04T03:17:41.347Z,6.54
2023-04-04T03:20:15.596Z,6.44
2023-04-04T03:22:48.154Z,6.16
2023-04-04T03:25:20.936Z,6.31
2023-04-04T03:27:53.691Z,6.28
2023-04-04T03:30:28.665Z,6.71
2023-04-04T03:33:00.944Z,6.76
2023-04-04T03:35:33.332Z,6.43
2023-04-04T03:38:06.298Z,6.76
2023-04-04T03:40:38.820Z,6.41
2023-04-04T03:43:12.450Z,6.61
2023-04-04T03:45:48.390Z,6.67
2023-04-04T03:48:20.571Z,6.60
2023-04-04T03:50:52.807Z,6.68
2023-04-04T03:53:24.963Z,6.67
2023-04-04T03:56:00.360Z,6.62
2023-04-04T03:58:33.220Z,6.56
2023-04-04T04:01:08.084Z,6.84
2023-04-04T04:03:40.631Z,7.17
2023-04-04T04:06:13.054Z,6.91
2023-04-04T04:08:45.277Z,6.95
2023-04-04T04:11:17.487Z,7.29
2023-04-04T04:13:49.684Z,6.84
2023-04-04T04:16:24.782Z,6.82
2023-04-04T04:18:57.039Z,6.92
2023-04-04T04:21:29.419Z,6.89
2023-04-04T04:24:01.637Z,6.59
2023-04-04T04:26:33.886Z,7.07
2023-04-04T04:29:06.252Z,7.23
2023-04-04T04:31:42.114Z,6.98
2023-04-04T04:34:14.347Z,7.22
2023-04-04T04:36:47.396Z,7.44
2023-04-04T04:39:19.581Z,7.54
2023-04-04T04:41:51.743Z,7.21
2023-04-04T04:44:24.077Z,6.72
2023-04-04T04:46:59.217Z,6.74
2023-04-04T04:49:31.637Z,7.26
2023-04-04T04:52:03.797Z,8.01
2023-04-04T04:54:35.952Z,7.90
2023-04-04T04:57:08.201Z,8.03
2023-04-04T04:59:41.454Z,8.46
2023-04-04T05:02:16.245Z,8.62
2023-04-04T05:04:48.739Z,8.35
2023-04-04T05:07:21.593Z,8.26
2023-04-04T05:09:55.377Z,7.79
2023-04-04T05:12:27.577Z,7.71
2023-04-04T05:15:00.154Z,7.81
2023-04-04T05:17:35.048Z,7.71
2023-04-04T05:20:07.893Z,8.19
2023-04-04T05:22:40.064Z,8.11
2023-04-04T05:25:13.513Z,8.33
2023-04-04T05:27:47.699Z,7.99
2023-04-04T05:30:20.243Z,8.27
2023-04-04T05:32:55.889Z,8.11
2023-04-04T05:35:28.572Z,8.09
2023-04-04T05:38:04.038Z,8.12
2023-04-04T05:40:37.712Z,8.31
2023-04-04T05:43:10.332Z,9.01
2023-04-04T05:45:42.729Z,8.76
2023-04-04T05:48:17.579Z,9.03
2023-04-04T05:50:49.903Z,9.14
2023-04-04T05:53:22.596Z,8.67
2023-04-04T05:55:56.362Z,9.70
2023-04-04T05:58:28.505Z,9.07
2023-04-04T06:01:01.619Z,8.56
2023-04-04T06:03:36.597Z,8.40
2023-04-04T06:06:09.540Z,8.43
2023-04-04T06:08:53.069Z,8.44
2023-04-04T06:11:26.510Z,8.61
2023-04-04T06:13:58.635Z,8.34
2023-04-04T06:16:31.662Z,8.48
2023-04-04T06:19:06.594Z,8.47
2023-04-04T06:21:38.788Z,8.60
2023-04-04T06:24:11.534Z,9.29
2023-04-04T06:26:45.011Z,9.26
2023-04-04T06:29:17.351Z,9.84
2023-04-04T06:31:49.903Z,9.54
2023-04-04T06:34:25.631Z,9.61
2023-04-04T06:36:58.021Z,9.39
2023-04-04T06:39:31.648Z,9.31
2023-04-04T06:42:04.118Z,9.47
2023-04-04T06:44:36.500Z,9.86
2023-04-04T06:47:08.676Z,10.54
2023-04-04T06:49:43.521Z,10.67
2023-04-04T06:52:15.877Z,11.30
2023-04-04T06:54:48.719Z,11.62
2023-04-04T06:57:21.102Z,12.27
2023-04-04T06:59:53.407Z,11.74
2023-04-04T07:02:25.876Z,11.66
2023-04-04T07:05:01.041Z,12.11
2023-04-04T07:07:33.386Z,12.21
2023-04-04T07:10:05.603Z,12.12
2023-04-04T07:12:37.908Z,12.14
2023-04-04T07:15:11.859Z,12.06
2023-04-04T07:17:44.182Z,6.64
2023-04-04T07:20:19.148Z,0.00
2023-04-04T07:22:52.429Z,0.00
2023-04-04T07:25:25.380Z,0.00
2023-04-04T07:28:09.642Z,0.00
2023-04-04T07:30:44.369Z,0.00
2023-04-04T07:33:16.749Z,0.00
2023-04-04T07:35:52.356Z,0.00
2023-04-04T07:38:24.627Z,0.00
2023-04-04T07:40:56.788Z,0.00
2023-04-04T07:43:28.940Z,0.00
2023-04-04T07:46:01.750Z,0.00
2023-04-04T07:48:33.933Z,0.00
2023-04-04T07:51:10.172Z,0.00
2023-04-04T07:53:42.563Z,0.00
2023-04-04T07:56:14.710Z,0.00
2023-04-04T07:58:46.826Z,0.00
2023-04-04T08:01:19.017Z,0.00
2023-04-04T08:03:53.629Z,0.00
2023-04-04T08:06:28.754Z,0.00
2023-04-04T08:09:01.283Z,0.00
2023-04-04T08:11:33.513Z,0.00
2023-04-04T08:14:06.204Z,0.00
2023-04-04T08:16:38.656Z,0.00
2023-04-04T08:19:11.117Z,0.00
2023-04-04T08:21:46.368Z,0.00
2023-04-04T08:24:19.520Z,0.00
2023-04-04T08:27:04.650Z,0.00
2023-04-04T08:29:38.054Z,0.00
2023-04-04T08:32:10.400Z,0.00
2023-04-04T08:34:42.516Z,0.00
2023-04-04T08:37:17.690Z,0.00
2023-04-04T08:39:50.250Z,0.00
2023-04-04T08:42:23.629Z,0.00
2023-04-04T08:45:00.187Z,0.00
2023-04-04T08:47:36.264Z,0.00
2023-04-04T08:50:10.925Z,0.00
2023-04-04T08:52:47.029Z,0.00
2023-04-04T08:55:20.378Z,0.00
2023-04-04T08:57:52.837Z,0.00
2023-04-04T09:00:25.413Z,0.00
2023-04-04T09:03:04.709Z,0.00
2023-04-04T09:05:37.802Z,0.00
2023-04-04T09:08:13.344Z,0.00
2023-04-04T09:11:08.621Z,0.00
2023-04-04T09:13:41.549Z,0.00
2023-04-04T09:16:13.835Z,0.00
2023-04-04T09:18:46.083Z,0.00
2023-04-04T09:21:18.469Z,0.00
2023-04-04T09:24:03.632Z,0.00
2023-04-04T09:26:54.854Z,0.00
2023-04-04T09:29:31.722Z,0.00
2023-04-04T09:32:06.855Z,0.00
2023-04-04T09:34:40.760Z,0.00
2023-04-04T09:37:15.912Z,0.00
2023-04-04T09:39:52.910Z,0.00
2023-04-04T09:42:27.025Z,0.00
2023-04-04T09:45:50.010Z,0.00
2023-04-04T09:48:37.979Z,0.00
2023-04-04T09:51:17.522Z,0.00
2023-04-04T09:53:57.281Z,0.00
2023-04-04T09:56:35.395Z,0.00
2023-04-04T10:17:01.972Z,4.86
2023-04-04T10:19:37.754Z,4.76
2023-04-04T10:22:12.949Z,4.65
2023-04-04T10:24:54.255Z,5.11
2023-04-04T10:27:27.781Z,4.91
2023-04-04T10:30:18.226Z,4.85
2023-04-04T10:33:27.627Z,4.70
2023-04-04T10:36:15.388Z,4.37
2023-04-04T10:39:06.455Z,4.49
2023-04-04T10:41:47.846Z,4.54
2023-04-04T10:44:35.825Z,4.33
2023-04-04T10:47:47.670Z,4.69
2023-04-04T10:50:43.221Z,4.28
2023-04-04T10:53:23.448Z,4.84
2023-04-04T10:56:00.193Z,4.39
2023-04-04T10:58:39.590Z,4.60
2023-04-04T11:01:21.937Z,4.59
2023-04-04T11:04:30.208Z,4.76
2023-04-04T11:07:40.795Z,4.66
2023-04-04T11:10:31.617Z,4.50
2023-04-04T11:13:14.784Z,4.50
2023-04-04T11:16:21.978Z,4.80
2023-04-04T11:19:11.428Z,5.01
2023-04-04T11:21:51.062Z,4.86
2023-04-04T11:24:32.591Z,4.93
2023-04-04T11:27:20.617Z,4.68
2023-04-04T11:30:19.640Z,4.42
2023-04-04T11:33:11.580Z,4.30
2023-04-04T11:35:59.296Z,4.28
2023-04-04T11:38:37.188Z,4.70
2023-04-04T11:41:22.665Z,4.66
2023-04-04T11:44:22.294Z,4.34
2023-04-04T11:47:06.287Z,4.47
2023-04-04T11:49:47.708Z,4.86
2023-04-04T11:52:47.075Z,4.33
2023-04-04T11:55:28.266Z,4.74
2023-04-04T11:58:15.022Z,4.53
2023-04-04T12:01:00.251Z,4.59
2023-04-04T12:06:45.190Z,4.76
2023-04-04T12:09:31.073Z,4.87
2023-04-04T12:12:30.045Z,4.94
2023-04-04T12:15:17.419Z,4.79
2023-04-04T12:18:03.555Z,4.97
2023-04-04T12:20:47.570Z,4.91
2023-04-04T12:23:23.079Z,5.06
2023-04-04T12:26:24.453Z,5.30
2023-04-04T12:29:11.375Z,4.75
2023-04-04T12:32:04.690Z,5.18
2023-04-04T12:34:47.258Z,4.94
2023-04-04T12:37:42.702Z,4.82
2023-04-04T12:40:24.648Z,4.79
2023-04-04T19:35:25.232Z,14.52
2023-04-04T19:38:01.551Z,16.67
2023-04-04T19:41:09.467Z,17.76
2023-04-04T19:43:51.815Z,22.89
2023-04-04T19:46:37.617Z,22.37
2023-04-04T19:49:30.793Z,21.24
2023-04-04T19:52:25.602Z,21.70
2023-04-04T19:55:05.578Z,20.70
2023-04-04T19:57:50.033Z,18.26
2023-04-04T20:08:20.743Z,9.13
2023-04-04T20:11:07.029Z,9.39
2023-04-04T20:16:56.812Z,9.77
2023-04-04T20:19:43.872Z,10.46
2023-04-04T20:22:39.052Z,10.55
2023-04-04T20:25:43.201Z,11.28
2023-04-04T20:28:28.971Z,11.16
2023-04-04T20:31:06.637Z,11.31
2023-04-04T20:34:04.850Z,11.44
2023-04-04T20:36:54.961Z,10.69
2023-04-04T20:39:58.123Z,11.68
2023-04-04T20:45:51.637Z,11.51
2023-04-04T20:49:01.999Z,11.37
2023-04-04T20:51:50.890Z,12.16
2023-04-04T20:54:36.796Z,11.72
2023-04-04T20:57:15.973Z,11.47
2023-04-04T20:59:49.857Z,11.76
2023-04-04T21:02:24.557Z,11.71
2023-04-04T21:05:12.979Z,12.19
2023-04-04T21:07:59.946Z,11.70
2023-04-04T21:11:11.509Z,12.06
2023-04-04T21:13:50.047Z,12.21
2023-04-04T21:16:45.818Z,11.86
2023-04-04T21:22:46.139Z,11.75
2023-04-04T21:25:50.991Z,12.06
2023-04-04T21:28:36.666Z,12.19
2023-04-04T21:31:27.434Z,11.86
2023-04-04T21:34:15.152Z,11.99
2023-04-04T21:36:52.202Z,11.93
2023-04-04T21:39:45.064Z,11.51
2023-04-04T21:42:31.134Z,11.85
2023-04-04T21:45:14.084Z,13.06
2023-04-04T21:47:49.425Z,12.04
2023-04-04T21:50:41.685Z,12.86
2023-04-04T21:53:36.469Z,14.08
2023-04-04T21:56:21.842Z,13.41
2023-04-04T21:59:00.923Z,12.62
2023-04-04T22:01:47.133Z,12.72
2023-04-04T22:04:27.922Z,12.54
2023-04-04T22:07:17.907Z,12.02
2023-04-04T22:10:11.027Z,11.49
2023-04-04T22:13:27.127Z,10.66
2023-04-04T22:16:07.596Z,10.77
2023-04-04T22:18:55.529Z,11.34
2023-04-04T22:21:37.329Z,11.61
2023-04-04T22:24:18.821Z,11.59
2023-04-04T22:27:12.335Z,11.61
2023-04-04T22:29:56.350Z,11.28
2023-04-04T22:32:45.409Z,11.45
2023-04-04T22:35:24.672Z,11.76
2023-04-04T22:38:10.262Z,12.36
2023-04-04T22:40:59.866Z,11.81
2023-04-04T22:46:23.926Z,11.64
2023-04-04T22:49:05.779Z,11.07
2023-04-04T22:52:04.265Z,11.19
2023-04-04T22:54:50.760Z,12.49
2023-04-04T22:57:58.313Z,12.10
2023-04-04T23:00:40.032Z,12.24
2023-04-04T23:03:20.235Z,11.54
2023-04-04T23:06:22.924Z,12.03
2023-04-04T23:09:29.672Z,12.24
2023-04-04T23:12:08.625Z,12.06
2023-04-04T23:14:52.493Z,12.87
2023-04-04T23:17:45.176Z,12.95
2023-04-04T23:20:35.825Z,12.69
2023-04-04T23:23:11.376Z,11.46
2023-04-04T23:25:58.576Z,11.57
2023-04-04T23:28:36.305Z,11.56
2023-04-04T23:31:39.207Z,11.84
2023-04-04T23:34:19.360Z,11.80
2023-04-04T23:37:01.859Z,11.83
2023-04-04T23:42:51.287Z,11.41
2023-04-04T23:45:30.694Z,12.24
2023-04-04T23:48:25.017Z,12.54
2023-04-04T23:51:04.388Z,12.49
2023-04-04T23:56:58.889Z,13.74
2023-04-04T23:59:32.966Z,13.21
